Time;durP1;ratioP1;P1;durP2;ratioP2;P2;SDS_P1;SDS_P2;PMS_P1;PMS_P2;Temp;Humidity;BMP_temperature;BMP_pressure;BME280_temperature;BME280_humidity;BME280_pressure;Samples;Min_cycle;Max_cycle;Signal;HPM_P1;HPM_P2
2023/05/06 00:00:50;;;;;;;3.73;3.27;;;;;;;14.60;100.00;99086.38;4984129;28;20285;-79
2023/05/06 00:03:20;;;;;;;5.77;3.40;;;;;;;14.54;100.00;99095.72;4988103;28;20203;-79
2023/05/06 00:05:49;;;;;;;5.03;3.47;;;;;;;14.51;100.00;99087.97;4992634;28;20214;-80
2023/05/06 00:08:17;;;;;;;9.17;3.97;;;;;;;14.35;100.00;99087.47;4987925;28;20206;-79
2023/05/06 00:10:46;;;;;;;3.90;3.60;;;;;;;14.37;100.00;99088.19;4998631;28;20219;-79
2023/05/06 00:13:14;;;;;;;3.70;3.40;;;;;;;14.33;100.00;99082.28;4995986;28;20203;-78
2023/05/06 00:15:43;;;;;;;3.47;3.17;;;;;;;14.36;100.00;99083.84;4956821;29;20201;-79
2023/05/06 00:18:11;;;;;;;7.80;3.47;;;;;;;14.32;100.00;99083.25;4948307;29;20200;-79
2023/05/06 00:20:42;;;;;;;4.33;3.57;;;;;;;14.33;100.00;99084.94;4946212;29;20671;-78
2023/05/06 00:23:11;;;;;;;4.40;3.53;;;;;;;14.30;100.00;99079.03;4951626;29;20232;-78
2023/05/06 00:25:40;;;;;;;4.90;3.83;;;;;;;14.16;100.00;99074.78;4944149;29;20200;-78
2023/05/06 00:28:12;;;;;;;4.20;3.70;;;;;;;14.20;100.00;99075.41;4946203;29;20259;-79
2023/05/06 00:30:40;;;;;;;4.67;3.60;;;;;;;14.27;100.00;99077.44;4914834;29;20255;-79
2023/05/06 00:33:08;;;;;;;4.37;3.97;;;;;;;14.04;100.00;99067.78;4919546;28;20194;-79
2023/05/06 00:35:38;;;;;;;4.87;3.87;;;;;;;14.15;100.00;99075.75;4987005;28;20282;-79
2023/05/06 00:38:14;;;;;;;4.40;4.00;;;;;;;14.17;100.00;99081.81;4926711;29;20209;-79
2023/05/06 00:40:42;;;;;;;4.17;3.77;;;;;;;14.14;100.00;99087.38;4927028;29;20200;-79
2023/05/06 00:43:10;;;;;;;4.80;4.30;;;;;;;13.99;100.00;99085.94;4920973;29;20213;-80
2023/05/06 00:45:38;;;;;;;4.17;3.50;;;;;;;14.02;100.00;99086.56;4930042;29;20260;-79
2023/05/06 00:48:08;;;;;;;4.30;3.90;;;;;;;14.02;100.00;99083.88;4925295;29;20580;-79
2023/05/06 00:50:36;;;;;;;4.17;3.77;;;;;;;14.07;100.00;99086.16;4924911;29;20292;-79
2023/05/06 00:53:06;;;;;;;3.87;3.53;;;;;;;13.84;100.00;99089.81;4924935;29;20256;-79
2023/05/06 00:55:36;;;;;;;5.27;3.90;;;;;;;13.77;100.00;99092.09;4942737;28;20202;-79
2023/05/06 00:58:05;;;;;;;4.40;4.00;;;;;;;13.83;100.00;99086.31;4989616;28;20206;-79
2023/05/06 01:00:33;;;;;;;5.83;4.00;;;;;;;13.82;100.00;99081.97;4991812;28;20222;-79
2023/05/06 01:03:01;;;;;;;5.33;3.70;;;;;;;13.69;100.00;99074.06;4988312;28;20198;-79
2023/05/06 01:05:38;;;;;;;5.67;3.80;;;;;;;13.69;100.00;99076.72;4988424;28;20246;-79
2023/05/06 01:08:13;;;;;;;3.93;3.63;;;;;;;13.82;100.00;99073.13;4988299;28;20207;-79
2023/05/06 01:10:50;;;;;;;5.47;4.03;;;;;;;13.77;100.00;99064.63;4992090;28;20214;-79
2023/05/06 01:13:29;;;;;;;5.93;4.10;;;;;;;13.84;100.00;99061.38;4992191;28;20206;-79
2023/05/06 01:15:59;;;;;;;6.97;4.17;;;;;;;13.97;100.00;99058.56;4990592;28;20194;-79
2023/05/06 01:18:32;;;;;;;7.57;4.37;;;;;;;13.97;100.00;99055.91;4990252;28;20203;-79
2023/05/06 01:21:05;;;;;;;7.10;4.30;;;;;;;13.95;100.00;99052.53;4994088;28;20677;-79
2023/05/06 01:23:52;;;;;;;4.53;4.00;;;;;;;13.96;100.00;99056.88;4992186;28;20254;-78
2023/05/06 01:26:21;;;;;;;5.10;3.50;;;;;;;14.00;100.00;99061.88;4988992;28;20210;-79
2023/05/06 01:28:49;;;;;;;4.20;3.23;;;;;;;13.74;100.00;99055.94;4993803;28;20199;-79
2023/05/06 01:31:25;;;;;;;4.30;2.97;;;;;;;13.80;100.00;99059.94;4991361;28;20266;-79
2023/05/06 01:34:06;;;;;;;6.73;3.43;;;;;;;13.72;100.00;99062.34;4990462;28;20199;-79
2023/05/06 01:36:41;;;;;;;8.47;4.27;;;;;;;13.56;100.00;99056.53;4988079;28;20205;-80
2023/05/06 01:39:16;;;;;;;5.53;4.53;;;;;;;13.50;100.00;99051.66;4990135;28;20286;-79
2023/05/06 01:41:47;;;;;;;6.30;5.10;;;;;;;13.43;100.00;99068.13;4991076;28;20203;-80
2023/05/06 01:44:17;;;;;;;7.57;4.33;;;;;;;13.51;100.00;99069.31;4993819;28;20210;-79
2023/05/06 01:46:46;;;;;;;5.00;4.50;;;;;;;13.38;100.00;99069.44;4987645;28;20211;-79
2023/05/06 01:49:17;;;;;;;5.33;4.40;;;;;;;13.42;100.00;99076.22;4992833;28;20650;-79
2023/05/06 01:51:48;;;;;;;4.40;4.00;;;;;;;13.54;100.00;99069.94;4989663;28;20280;-79
2023/05/06 01:54:19;;;;;;;6.40;4.43;;;;;;;13.42;100.00;99086.88;4993368;28;20199;-79
2023/05/06 01:56:47;;;;;;;7.03;4.13;;;;;;;13.28;100.00;99085.25;4985365;28;20230;-79
2023/05/06 01:59:16;;;;;;;7.23;4.73;;;;;;;13.33;100.00;99077.78;4987642;28;20191;-79
2023/05/06 02:01:44;;;;;;;5.40;4.10;;;;;;;13.28;100.00;99087.06;4990587;28;20231;-80
2023/05/06 02:04:13;;;;;;;5.37;4.40;;;;;;;13.31;100.00;99090.31;4989303;28;20203;-79
2023/05/06 02:06:41;;;;;;;4.70;4.30;;;;;;;13.33;100.00;99085.75;4994960;28;20214;-80
2023/05/06 02:09:10;;;;;;;6.30;5.07;;;;;;;13.38;100.00;99093.38;4990337;28;20290;-79
2023/05/06 02:11:39;;;;;;;5.77;4.23;;;;;;;13.13;100.00;99089.91;4986757;28;20752;-78
2023/05/06 02:14:08;;;;;;;6.43;4.30;;;;;;;13.15;100.00;99090.63;4992056;28;20203;-79
2023/05/06 02:16:38;;;;;;;5.03;4.20;;;;;;;13.09;100.00;99095.56;4988664;28;20202;-79
2023/05/06 02:19:07;;;;;;;6.00;4.27;;;;;;;13.05;100.00;99094.09;4993057;28;20257;-79
2023/05/06 02:21:35;;;;;;;4.60;4.13;;;;;;;13.05;100.00;99094.94;4994659;28;20199;-79
2023/05/06 02:24:03;;;;;;;4.50;4.10;;;;;;;12.98;100.00;99085.72;4942802;28;20195;-79
2023/05/06 02:26:32;;;;;;;6.87;4.50;;;;;;;12.98;100.00;99085.72;4992728;28;20195;-79
2023/05/06 02:29:01;;;;;;;5.47;4.07;;;;;;;13.02;100.00;99094.31;4993061;28;20538;-79
2023/05/06 02:31:30;;;;;;;4.87;4.03;;;;;;;12.83;100.00;99086.84;4992456;28;20590;-79
2023/05/06 02:33:58;;;;;;;5.30;4.00;;;;;;;12.76;100.00;99098.94;4987559;28;20205;-79
2023/05/06 02:36:28;;;;;;;6.97;4.60;;;;;;;12.81;100.00;99096.75;4995530;28;20195;-79
2023/05/06 02:38:56;;;;;;;6.43;4.47;;;;;;;12.71;100.00;99098.41;4992103;28;20199;-80
2023/05/06 02:41:25;;;;;;;4.47;4.07;;;;;;;12.76;100.00;99099.78;4989192;28;20195;-78
2023/05/06 02:43:54;;;;;;;5.70;4.13;;;;;;;12.84;100.00;99099.22;4995296;28;20605;-79
2023/05/06 02:46:23;;;;;;;5.47;4.00;;;;;;;12.72;100.00;99100.94;4995334;28;20191;-79
2023/05/06 02:48:53;;;;;;;4.20;3.80;;;;;;;12.85;100.00;99103.56;4995373;28;20191;-78
2023/05/06 02:51:21;;;;;;;3.90;3.50;;;;;;;12.66;100.00;99097.91;4995145;28;20202;-77
2023/05/06 02:53:49;;;;;;;4.10;3.70;;;;;;;12.56;100.00;99092.44;4987219;28;20195;-79
2023/05/06 02:56:18;;;;;;;4.03;3.60;;;;;;;12.33;100.00;99092.28;4992483;28;20262;-79
2023/05/06 02:58:46;;;;;;;4.33;3.40;;;;;;;12.29;100.00;99101.44;4990777;28;20199;-79
2023/05/06 03:01:14;;;;;;;3.60;3.30;;;;;;;12.34;100.00;99106.41;4984303;28;20262;-79
2023/05/06 03:03:44;;;;;;;3.93;3.53;;;;;;;12.37;100.00;99105.34;4991122;28;20205;-79
2023/05/06 03:06:12;;;;;;;3.27;2.97;;;;;;;12.18;100.00;99101.34;4989304;28;20209;-79
2023/05/06 03:08:41;;;;;;;4.07;3.67;;;;;;;12.20;100.00;99103.91;4993876;28;20202;-79
2023/05/06 03:11:09;;;;;;;5.63;3.77;;;;;;;12.37;100.00;99103.53;4995018;28;20201;-79
2023/05/06 03:13:37;;;;;;;4.07;3.60;;;;;;;12.45;100.00;99111.81;4995826;28;20230;-79
2023/05/06 03:16:13;;;;;;;4.57;4.17;;;;;;;12.42;100.00;99112.00;4995990;28;20206;-80
2023/05/06 03:18:41;;;;;;;4.20;3.77;;;;;;;12.39;100.00;99112.25;4990490;28;20191;-80
2023/05/06 03:21:11;;;;;;;4.13;3.77;;;;;;;12.39;100.00;99108.75;4990262;28;20204;-79
2023/05/06 03:23:39;;;;;;;4.97;3.63;;;;;;;12.34;100.00;99109.06;4987993;28;20221;-79
2023/05/06 03:26:07;;;;;;;3.43;3.13;;;;;;;11.99;100.00;99106.28;4990879;28;20281;-80
2023/05/06 03:28:36;;;;;;;3.53;3.07;;;;;;;12.04;100.00;99094.34;4994668;28;20198;-80
2023/05/06 03:31:05;;;;;;;3.07;2.77;;;;;;;12.02;100.00;99106.91;4984772;28;20207;-79
2023/05/06 03:33:33;;;;;;;4.27;3.23;;;;;;;12.16;100.00;99105.94;4991503;28;20219;-79
2023/05/06 03:36:03;;;;;;;3.47;3.17;;;;;;;12.20;100.00;99107.41;4982986;28;20250;-79
2023/05/06 03:38:33;;;;;;;3.70;3.40;;;;;;;12.06;100.00;99106.66;4988706;28;20191;-79
2023/05/06 03:41:01;;;;;;;3.13;2.83;;;;;;;11.89;100.00;99103.41;4987212;28;20187;-78
2023/05/06 03:43:29;;;;;;;3.57;2.77;;;;;;;11.85;100.00;99111.69;4987449;28;20217;-80
2023/05/06 03:45:57;;;;;;;4.83;2.57;;;;;;;11.64;100.00;99112.19;4983476;28;20388;-79
2023/05/06 03:48:26;;;;;;;3.00;2.70;;;;;;;11.63;100.00;99097.22;4988337;28;20233;-80
2023/05/06 03:50:54;;;;;;;3.43;3.13;;;;;;;11.48;100.00;99103.59;4990018;28;20207;-80
2023/05/06 03:53:22;;;;;;;3.13;2.83;;;;;;;11.63;100.00;99099.03;4983227;28;20225;-79
2023/05/06 03:55:52;;;;;;;3.83;3.33;;;;;;;11.59;100.00;99108.19;4986855;28;20215;-79
2023/05/06 03:58:21;;;;;;;3.83;3.23;;;;;;;11.71;100.00;99110.81;4985160;28;20654;-79
2023/05/06 04:00:49;;;;;;;5.00;3.60;;;;;;;11.64;100.00;99111.34;4987471;28;20264;-79
2023/05/06 04:03:18;;;;;;;3.93;3.13;;;;;;;11.66;100.00;99107.63;4987686;28;20234;-79
2023/05/06 04:05:46;;;;;;;4.10;3.40;;;;;;;11.63;100.00;99107.00;4984538;28;20277;-79
2023/05/06 04:08:15;;;;;;;5.93;3.03;;;;;;;11.59;100.00;99110.84;4984176;28;20211;-80
2023/05/06 04:10:44;;;;;;;5.03;2.97;;;;;;;11.56;100.00;99108.38;4985019;28;20249;-80
2023/05/06 04:13:14;;;;;;;3.07;2.43;;;;;;;11.37;100.00;99103.47;4988358;28;20226;-79
2023/05/06 04:15:43;;;;;;;2.50;2.30;;;;;;;11.51;100.00;99103.41;4984150;28;20203;-80
2023/05/06 04:18:14;;;;;;;3.80;2.57;;;;;;;11.54;100.00;99107.63;4987463;28;20265;-79
2023/05/06 04:20:42;;;;;;;3.20;2.60;;;;;;;11.63;100.00;99107.84;4983990;28;20234;-79
2023/05/06 04:23:10;;;;;;;3.00;2.53;;;;;;;11.72;100.00;99107.22;4989568;28;20206;-78
2023/05/06 04:25:41;;;;;;;5.80;2.87;;;;;;;11.72;100.00;99103.72;4989606;28;20261;-79
2023/05/06 04:28:11;;;;;;;2.43;2.23;;;;;;;11.90;100.00;99110.41;4984833;28;20203;-79
2023/05/06 04:30:41;;;;;;;3.13;2.60;;;;;;;11.79;100.00;99110.28;4983331;28;20203;-79
2023/05/06 04:33:09;;;;;;;4.20;3.50;;;;;;;11.79;100.00;99112.94;4984878;28;20278;-79
2023/05/06 04:35:37;;;;;;;4.37;3.17;;;;;;;11.72;100.00;99123.13;4985800;28;20214;-79
2023/05/06 04:38:06;;;;;;;3.40;3.10;;;;;;;11.51;100.00;99135.22;4983703;28;20195;-79
2023/05/06 04:40:37;;;;;;;8.87;3.73;;;;;;;11.37;100.00;99136.16;4985740;28;20198;-79
2023/05/06 04:43:05;;;;;;;5.40;4.37;;;;;;;11.35;100.00;99137.22;4987767;28;20205;-79
2023/05/06 04:45:36;;;;;;;38.40;5.10;;;;;;;11.30;100.00;99129.56;4982929;28;20191;-80
2023/05/06 04:48:08;;;;;;;4.43;4.03;;;;;;;11.33;100.00;99139.13;4986513;28;20207;-79
2023/05/06 04:50:36;;;;;;;4.03;3.73;;;;;;;11.24;100.00;99145.03;4984270;28;20205;-79
2023/05/06 04:53:05;;;;;;;4.03;3.73;;;;;;;11.36;100.00;99147.72;4981824;28;20230;-79
2023/05/06 04:55:34;;;;;;;4.20;3.80;;;;;;;11.51;100.00;99145.00;4983765;28;20531;-79
2023/05/06 04:58:02;;;;;;;3.40;3.10;;;;;;;11.71;100.00;99142.66;4988854;28;20250;-79
2023/05/06 05:00:31;;;;;;;3.70;3.40;;;;;;;11.72;100.00;99148.81;4986509;28;20234;-80
2023/05/06 05:03:00;;;;;;;4.40;4.00;;;;;;;11.73;100.00;99151.38;4986024;28;20199;-80
2023/05/06 05:05:32;;;;;;;3.80;3.47;;;;;;;11.97;100.00;99163.94;4987642;28;20271;-80
2023/05/06 05:08:00;;;;;;;3.23;2.90;;;;;;;11.98;100.00;99158.50;4984218;28;20206;-79
2023/05/06 05:10:29;;;;;;;3.37;3.17;;;;;;;12.12;100.00;99156.69;4993332;28;20238;-80
2023/05/06 05:12:58;;;;;;;4.27;3.50;;;;;;;12.15;100.00;99165.28;4990342;28;20230;-78
2023/05/06 05:15:26;;;;;;;3.50;3.20;;;;;;;12.11;100.00;99163.81;4983932;28;20677;-79
2023/05/06 05:17:55;;;;;;;3.47;3.17;;;;;;;12.06;100.00;99167.72;4993282;28;20322;-80
2023/05/06 05:20:24;;;;;;;3.40;3.10;;;;;;;12.08;100.00;99174.66;4983015;28;20209;-79
2023/05/06 05:22:53;;;;;;;2.90;2.70;;;;;;;12.21;100.00;99177.28;4982242;28;20344;-80
2023/05/06 05:25:22;;;;;;;3.30;3.10;;;;;;;12.22;100.00;99173.66;4981869;28;20269;-80
2023/05/06 05:27:50;;;;;;;3.57;3.27;;;;;;;12.45;100.00;99175.56;4986360;28;20207;-79
2023/05/06 05:30:19;;;;;;;3.67;3.37;;;;;;;12.58;100.00;99181.69;4980382;28;20254;-79
2023/05/06 05:32:47;;;;;;;3.70;3.40;;;;;;;12.70;100.00;99189.72;4984341;28;20258;-80
2023/05/06 05:35:16;;;;;;;3.60;3.30;;;;;;;12.79;100.00;99191.72;4983582;28;20195;-79
2023/05/06 05:37:44;;;;;;;3.40;3.20;;;;;;;12.75;100.00;99190.25;4985099;28;20206;-79
2023/05/06 05:40:15;;;;;;;3.60;3.30;;;;;;;12.91;100.00;99188.16;4983515;28;20231;-79
2023/05/06 05:42:43;;;;;;;3.90;3.57;;;;;;;12.93;100.00;99188.88;4984970;28;20203;-79
2023/05/06 05:45:12;;;;;;;4.03;3.73;;;;;;;12.95;100.00;99194.13;4985522;28;20195;-79
2023/05/06 05:47:42;;;;;;;3.90;3.60;;;;;;;12.80;100.00;99191.59;4989632;28;20556;-80
2023/05/06 05:50:11;;;;;;;3.50;3.20;;;;;;;12.82;100.00;99192.34;4988670;28;20203;-79
2023/05/06 05:52:39;;;;;;;4.03;3.73;;;;;;;13.09;100.00;99188.63;4995175;28;20202;-80
2023/05/06 05:55:08;;;;;;;3.97;3.67;;;;;;;12.99;100.00;99196.44;4996251;28;20709;-80
2023/05/06 05:57:38;;;;;;;3.80;3.20;;;;;;;13.14;100.00;99186.50;4953236;28;20270;-80
2023/05/06 06:00:08;;;;;;;4.67;4.10;;;;;;;13.21;100.00;99201.03;4996139;28;20223;-79
2023/05/06 06:02:40;;;;;;;4.60;4.03;;;;;;;13.23;100.00;99193.81;4985746;28;20207;-79
2023/05/06 06:05:09;;;;;;;5.50;4.10;;;;;;;13.34;100.00;99193.88;4989917;28;20195;-79
2023/05/06 06:07:37;;;;;;;4.03;3.63;;;;;;;13.53;100.00;99200.47;4989454;28;20238;-79
2023/05/06 06:10:07;;;;;;;4.07;3.67;;;;;;;13.45;100.00;99190.41;4909467;29;20206;-79
2023/05/06 06:12:35;;;;;;;4.20;3.80;;;;;;;13.58;100.00;99199.13;4912317;29;20301;-79
2023/05/06 06:15:06;;;;;;;5.27;4.03;;;;;;;13.75;100.00;99198.72;4910168;29;20250;-79
2023/05/06 06:17:35;;;;;;;4.67;3.97;;;;;;;13.80;100.00;99194.84;4914308;29;20237;-79
2023/05/06 06:20:03;;;;;;;3.87;3.53;;;;;;;13.82;100.00;99190.25;4907239;29;20233;-79
2023/05/06 06:22:32;;;;;;;4.43;3.80;;;;;;;14.00;100.00;99197.69;4853180;29;20211;-79
2023/05/06 06:25:00;;;;;;;5.10;4.10;;;;;;;14.03;100.00;99194.78;4860629;29;20204;-80
2023/05/06 06:27:28;;;;;;;4.97;4.03;;;;;;;14.30;100.00;99194.44;4858382;29;20218;-79
2023/05/06 06:29:56;;;;;;;4.77;4.30;;;;;;;14.25;100.00;99201.09;4856716;29;20236;-80
2023/05/06 06:32:26;;;;;;;4.40;4.00;;;;;;;14.20;100.00;99204.13;4857419;29;20199;-80
2023/05/06 06:34:55;;;;;;;4.50;4.10;;;;;;;14.34;100.00;99203.03;4892241;29;20225;-79
2023/05/06 06:37:23;;;;;;;5.20;4.10;;;;;;;14.57;100.00;99198.56;4931747;29;20189;-79
2023/05/06 06:39:52;;;;;;;6.57;3.97;;;;;;;14.67;100.00;99204.00;4935444;29;20197;-79
2023/05/06 06:42:20;;;;;;;5.27;4.70;;;;;;;14.45;100.00;99205.72;4933194;29;20213;-80
2023/05/06 06:44:48;;;;;;;4.70;4.20;;;;;;;14.49;100.00;99203.69;4929241;29;20665;-80
2023/05/06 06:47:16;;;;;;;4.37;3.93;;;;;;;14.64;100.00;99205.09;4964614;28;20187;-80
2023/05/06 06:49:47;;;;;;;5.40;4.40;;;;;;;14.60;100.00;99193.84;4993591;28;20207;-79
2023/05/06 06:52:15;;;;;;;5.33;4.60;;;;;;;14.65;100.00;99203.28;4994644;28;20198;-80
2023/05/06 06:54:44;;;;;;;6.03;5.23;;;;;;;14.92;100.00;99193.06;4988816;28;20223;-80
2023/05/06 06:57:12;;;;;;;5.47;4.43;;;;;;;14.94;100.00;99196.44;4990280;28;20202;-79
2023/05/06 06:59:40;;;;;;;7.77;5.27;;;;;;;15.09;100.00;99189.88;4985352;28;20199;-80
2023/05/06 07:02:09;;;;;;;6.63;4.87;;;;;;;15.05;100.00;99184.91;4995084;28;20662;-79
2023/05/06 07:04:38;;;;;;;5.70;4.90;;;;;;;15.31;100.00;99185.41;4995034;28;20195;-78
2023/05/06 07:07:08;;;;;;;5.13;4.27;;;;;;;15.46;100.00;99190.34;4985002;28;20203;-79
2023/05/06 07:09:36;;;;;;;6.33;4.60;;;;;;;15.26;100.00;99187.66;4985655;28;20242;-80
2023/05/06 07:12:07;;;;;;;6.07;4.50;;;;;;;15.33;100.00;99188.81;4986755;28;20282;-80
2023/05/06 07:14:35;;;;;;;5.30;4.10;;;;;;;15.64;100.00;99187.13;4987549;28;20222;-80
2023/05/06 07:17:03;;;;;;;6.07;4.07;;;;;;;15.75;100.00;99184.41;4994430;28;20203;-80
2023/05/06 07:19:32;;;;;;;4.13;3.03;;;;;;;15.73;100.00;99178.34;4961501;28;20282;-80
2023/05/06 07:22:01;;;;;;;3.17;2.87;;;;;;;15.84;100.00;99177.44;4988171;28;20203;-80
2023/05/06 07:24:31;;;;;;;3.77;2.97;;;;;;;15.75;100.00;99168.38;4992123;28;20211;-80
2023/05/06 07:27:01;;;;;;;4.03;3.50;;;;;;;16.16;100.00;99180.84;4986307;28;20206;-80
2023/05/06 07:29:33;;;;;;;3.93;3.20;;;;;;;16.36;100.00;99171.09;4983461;28;20199;-80
2023/05/06 07:32:01;;;;;;;6.27;3.70;;;;;;;16.50;100.00;99177.88;4989442;28;20199;-80
2023/05/06 07:34:31;;;;;;;4.27;3.17;;;;;;;16.47;100.00;99179.00;4989083;28;20234;-80
2023/05/06 07:37:00;;;;;;;4.07;3.30;;;;;;;16.34;100.00;99169.53;4993370;28;20203;-80
2023/05/06 07:39:28;;;;;;;3.53;3.17;;;;;;;16.40;100.00;99179.66;4990419;28;20650;-79
2023/05/06 07:41:58;;;;;;;4.87;3.33;;;;;;;16.37;100.00;99179.94;4990328;28;20201;-80
2023/05/06 07:44:26;;;;;;;4.47;3.20;;;;;;;16.36;100.00;99184.44;4990636;28;20238;-80
2023/05/06 07:46:54;;;;;;;4.53;3.20;;;;;;;16.78;100.00;99187.00;4990874;28;20195;-80
2023/05/06 07:49:24;;;;;;;4.77;3.43;;;;;;;16.79;100.00;99186.91;4989006;28;20289;-80
2023/05/06 07:51:52;;;;;;;5.30;3.13;;;;;;;16.27;100.00;99188.78;4983971;28;20207;-80
2023/05/06 07:54:20;;;;;;;4.23;3.27;;;;;;;16.41;100.00;99184.91;4990471;28;20716;-80
2023/05/06 07:56:48;;;;;;;4.13;3.27;;;;;;;16.65;100.00;99194.41;4994289;28;20211;-79
2023/05/06 07:59:18;;;;;;;4.10;3.67;;;;;;;16.81;100.00;99189.44;4988989;28;20199;-81
2023/05/06 08:01:46;;;;;;;5.30;3.70;;;;;;;17.09;100.00;99191.31;4993795;28;20289;-80
2023/05/06 08:04:14;;;;;;;6.73;3.50;;;;;;;16.67;100.00;99179.91;4990318;28;20195;-80
2023/05/06 08:06:45;;;;;;;5.10;3.60;;;;;;;16.91;100.00;99190.31;4989548;28;20195;-81
2023/05/06 08:09:13;;;;;;;3.27;2.97;;;;;;;17.54;100.00;99185.41;4985957;28;20211;-80
2023/05/06 08:11:49;;;;;;;4.43;3.30;;;;;;;17.36;100.00;99181.75;4989603;28;20207;-80
2023/05/06 08:14:20;;;;;;;4.43;3.10;;;;;;;17.52;100.00;99179.34;4984673;28;20207;-80
2023/05/06 08:16:52;;;;;;;5.90;3.10;;;;;;;17.50;100.00;99185.84;4993527;28;20199;-80
2023/05/06 08:19:21;;;;;;;4.80;2.93;;;;;;;17.41;100.00;99184.88;4993021;28;20195;-81
2023/05/06 08:21:50;;;;;;;5.63;3.20;;;;;;;17.57;100.00;99182.47;4985771;28;20207;-81
2023/05/06 08:24:19;;;;;;;4.20;3.00;;;;;;;17.67;100.00;99183.31;4990675;28;20274;-80
2023/05/06 08:26:47;;;;;;;4.47;3.10;;;;;;;17.89;100.00;99170.59;4990191;28;20241;-81
2023/05/06 08:29:16;;;;;;;2.93;2.60;;;;;;;18.08;100.00;99175.91;4984494;28;20258;-80
2023/05/06 08:31:47;;;;;;;3.77;2.53;;;;;;;18.31;100.00;99173.72;4993089;28;20195;-80
2023/05/06 08:34:17;;;;;;;2.50;2.30;;;;;;;18.49;100.00;99177.31;4984092;28;20213;-80
2023/05/06 08:36:45;;;;;;;2.40;2.20;;;;;;;18.07;100.00;99176.91;4983428;28;20209;-80
2023/05/06 08:39:15;;;;;;;5.30;2.70;;;;;;;17.76;100.00;99172.72;4989679;28;20230;-81
2023/05/06 08:41:48;;;;;;;2.97;2.27;;;;;;;18.46;100.00;99182.13;4988667;28;20695;-81
2023/05/06 08:44:19;;;;;;;4.37;2.83;;;;;;;18.71;100.00;99177.94;4984021;28;20764;-80
2023/05/06 08:46:49;;;;;;;2.77;2.43;;;;;;;18.37;100.00;99178.50;4986900;28;20724;-80
2023/05/06 08:49:18;;;;;;;4.47;2.37;;;;;;;18.51;100.00;99179.84;4989424;28;20195;-81
2023/05/06 08:51:50;;;;;;;4.87;2.70;;;;;;;18.55;100.00;99179.41;4978492;28;20195;-80
2023/05/06 08:54:19;;;;;;;3.73;2.40;;;;;;;18.74;100.00;99173.16;4989766;28;20298;-79
2023/05/06 08:56:53;;;;;;;3.70;2.40;;;;;;;19.28;100.00;99173.19;4985558;28;20761;-78
2023/05/06 08:59:25;;;;;;;4.00;2.43;;;;;;;19.07;100.00;99181.56;4988497;28;20249;-78
2023/05/06 09:01:55;;;;;;;3.10;2.60;;;;;;;19.13;100.00;99184.47;4988958;28;20712;-78
2023/05/06 09:04:23;;;;;;;3.50;2.70;;;;;;;19.69;100.00;99179.84;4990606;28;20209;-80
2023/05/06 09:06:51;;;;;;;3.33;2.47;;;;;;;19.83;100.00;99176.56;4986395;28;20203;-80
2023/05/06 09:09:19;;;;;;;4.63;2.53;;;;;;;20.07;100.00;99175.88;4990240;28;20195;-80
2023/05/06 09:11:52;;;;;;;2.83;2.00;;;;;;;19.53;100.00;99172.44;4989485;28;20257;-80
2023/05/06 09:14:22;;;;;;;3.57;2.20;;;;;;;19.63;100.00;99177.75;4988537;28;20223;-81
2023/05/06 09:16:52;;;;;;;4.50;2.13;;;;;;;19.91;100.00;99184.69;4989450;28;20916;-81
2023/05/06 09:19:23;;;;;;;4.47;2.20;;;;;;;19.98;100.00;99168.78;4991282;28;20207;-80
2023/05/06 09:21:51;;;;;;;4.27;2.13;;;;;;;20.39;100.00;99174.41;4992996;28;20203;-80
2023/05/06 09:24:20;;;;;;;4.00;2.10;;;;;;;20.49;98.79;99176.00;4994286;28;20214;-81
2023/05/06 09:26:49;;;;;;;3.22;2.08;;;;;;;20.76;90.98;99166.88;4994023;28;20199;-80
2023/05/06 09:29:17;;;;;;;3.00;2.08;;;;;;;20.16;93.21;99176.78;4994024;28;20199;-79
2023/05/06 09:31:48;;;;;;;2.88;1.65;;;;;;;20.46;87.76;99176.34;4992425;28;20269;-81
2023/05/06 09:34:17;;;;;;;4.30;2.70;;;;;;;20.43;95.90;99165.03;4987686;28;20203;-80
2023/05/06 09:36:46;;;;;;;2.95;2.20;;;;;;;20.56;94.96;99171.66;4993949;28;20226;-80
2023/05/06 09:39:14;;;;;;;3.17;2.47;;;;;;;20.26;95.49;99172.97;4995512;28;20199;-81
2023/05/06 09:41:43;;;;;;;5.72;3.03;;;;;;;20.36;96.73;99162.09;4999259;28;20195;-81
2023/05/06 09:44:12;;;;;;;4.32;2.88;;;;;;;19.64;97.89;99166.00;4989774;28;20253;-81
2023/05/06 09:46:40;;;;;;;5.50;2.87;;;;;;;20.10;97.12;99162.13;4991627;28;20199;-81
2023/05/06 09:49:10;;;;;;;3.58;2.25;;;;;;;20.46;94.30;99162.88;4989280;28;20211;-81
2023/05/06 09:51:40;;;;;;;3.63;2.50;;;;;;;20.41;97.66;99157.09;4984634;28;20609;-80
2023/05/06 09:54:10;;;;;;;3.03;2.40;;;;;;;20.76;95.28;99150.72;4986485;28;20246;-81
2023/05/06 09:56:39;;;;;;;5.22;2.42;;;;;;;21.02;92.59;99155.97;4989395;28;20219;-81
2023/05/06 09:59:08;;;;;;;2.40;1.80;;;;;;;21.11;87.59;99156.84;4985774;28;20203;-80
2023/05/06 10:01:37;;;;;;;2.28;1.90;;;;;;;21.34;82.69;99149.00;4989458;28;20278;-81
2023/05/06 10:04:09;;;;;;;4.32;2.53;;;;;;;20.69;88.70;99146.97;4992966;28;20769;-81
2023/05/06 10:06:40;;;;;;;2.95;2.35;;;;;;;20.86;88.10;99150.56;4995037;28;20766;-80
2023/05/06 10:09:10;;;;;;;3.60;2.05;;;;;;;20.83;85.72;99154.41;4990847;28;20231;-81
2023/05/06 10:11:39;;;;;;;3.75;2.17;;;;;;;21.02;85.03;99149.75;4990253;28;20721;-81
2023/05/06 10:14:08;;;;;;;2.90;1.92;;;;;;;21.23;86.00;99147.47;4993636;28;20217;-81
2023/05/06 10:16:39;;;;;;;3.20;1.80;;;;;;;21.51;80.37;99137.22;4988209;28;20223;-80
2023/05/06 10:19:08;;;;;;;3.03;1.77;;;;;;;21.12;82.10;99142.38;4993140;28;20200;-81
2023/05/06 10:21:44;;;;;;;2.45;1.63;;;;;;;21.01;83.45;99138.13;4994458;28;20203;-81
2023/05/06 10:24:19;;;;;;;2.38;1.80;;;;;;;21.06;87.88;99135.81;4992768;28;20197;-81
2023/05/06 10:26:51;;;;;;;2.47;1.70;;;;;;;21.34;88.97;99136.38;4993355;28;20245;-81
2023/05/06 10:29:19;;;;;;;2.75;1.50;;;;;;;22.08;80.70;99129.09;4988727;28;20248;-80
2023/05/06 10:31:57;;;;;;;2.80;1.58;;;;;;;22.04;73.81;99133.13;4993642;28;20198;-81
2023/05/06 10:34:25;;;;;;;5.03;2.00;;;;;;;22.32;73.97;99130.88;4946940;28;20198;-80
2023/05/06 10:36:57;;;;;;;3.35;2.05;;;;;;;22.71;78.05;99128.19;4988984;28;20240;-81
2023/05/06 10:39:27;;;;;;;2.38;1.90;;;;;;;22.62;72.36;99123.84;5003150;28;20219;-81
2023/05/06 10:41:56;;;;;;;3.30;1.92;;;;;;;22.89;69.00;99127.97;5002778;28;20199;-80
2023/05/06 10:44:58;;;;;;;2.20;1.60;;;;;;;22.27;70.48;99117.91;4993718;28;20331;-81
2023/05/06 10:47:27;;;;;;;3.85;1.73;;;;;;;22.75;70.42;99121.41;4997465;28;20206;-80
2023/05/06 10:50:21;;;;;;;3.20;1.52;;;;;;;22.37;71.55;99117.69;4997284;28;20199;-80
2023/05/06 10:52:54;;;;;;;2.92;1.40;;;;;;;22.05;71.96;99109.69;4994545;28;20211;-80
2023/05/06 10:55:29;;;;;;;2.58;1.58;;;;;;;21.99;73.32;99106.66;4997267;28;20196;-80
2023/05/06 10:58:01;;;;;;;2.38;1.73;;;;;;;22.81;68.14;99096.41;4994194;28;20215;-81
2023/05/06 11:00:34;;;;;;;2.42;1.60;;;;;;;22.87;65.62;99100.25;5001614;28;20286;-80
2023/05/06 11:03:08;;;;;;;6.93;2.05;;;;;;;23.39;66.89;99095.00;4941334;29;20205;-80
2023/05/06 11:05:48;;;;;;;2.33;1.80;;;;;;;23.73;64.38;99095.56;4940403;29;20197;-80
2023/05/06 11:08:23;;;;;;;4.90;1.92;;;;;;;24.03;62.03;99099.13;4936128;29;20208;-81
2023/05/06 11:10:53;;;;;;;2.67;1.70;;;;;;;24.33;60.90;99100.03;4939092;29;20200;-81
2023/05/06 11:13:24;;;;;;;2.10;1.70;;;;;;;23.78;60.06;99096.69;4941082;29;20209;-80
2023/05/06 11:15:54;;;;;;;3.80;1.55;;;;;;;23.85;60.82;99096.81;4942230;29;20208;-81
2023/05/06 11:18:43;;;;;;;1.95;1.30;;;;;;;23.82;58.38;99094.47;4944576;29;20209;-81
2023/05/06 11:21:37;;;;;;;4.28;1.40;;;;;;;24.02;57.65;99095.59;4966886;28;20205;-80
2023/05/06 11:24:10;;;;;;;2.53;1.70;;;;;;;23.59;60.92;99089.13;4996839;28;20199;-80
2023/05/06 11:26:44;;;;;;;4.55;1.98;;;;;;;23.53;61.63;99092.50;4991294;28;20285;-80
2023/05/06 11:29:12;;;;;;;1.65;1.40;;;;;;;24.26;58.25;99089.06;4995219;28;20249;-81
2023/05/06 11:31:42;;;;;;;1.65;1.10;;;;;;;24.09;56.72;99080.28;4998126;28;20234;-80
2023/05/06 11:34:13;;;;;;;2.88;1.50;;;;;;;23.88;60.08;99081.03;4999245;28;20250;-81
2023/05/06 11:36:53;;;;;;;3.17;1.48;;;;;;;24.36;57.02;99078.00;4994106;28;20222;-82
2023/05/06 11:39:21;;;;;;;2.80;1.73;;;;;;;24.38;60.00;99084.06;4989266;28;20203;-81